sim
Sign-in with your pilot id or email,
or register
Callsign
Passwort

Schedule Details

Flight Number: EWG1783 (3)
Departure: Palma de Mallorca Airport (LEPA) at 10:25
Arrival: Munich Airport (EDDM) at 12:35
Route: Eurowings Passenger Schedule. Enter filed route here before submitting Pirep.

Weather Information
Getting current METAR information for LEPA 190900Z 27006KT 230V300 9000 FEW014 28/23 Q1014 NOSIG
Getting current METAR information for EDDM 190850Z 08007KT 050V120 CAVOK 14/08 Q1020 NOSIG

Schedule Frequency

Route Map